sensor_id;sensor_type;location;lat;lon;timestamp;temperature;humidity
5520;DHT22;2782;52.362;10.012;2022-11-09T00:00:47;19.50;97.00
5520;DHT22;2782;52.362;10.012;2022-11-09T00:01:49;19.50;97.00
5520;DHT22;2782;52.362;10.012;2022-11-09T00:02:50;19.50;97.00
5520;DHT22;2782;52.362;10.012;2022-11-09T00:03:55;19.50;97.00
5520;DHT22;2782;52.362;10.012;2022-11-09T00:04:57;19.50;97.10
5520;DHT22;2782;52.362;10.012;2022-11-09T00:05:59;19.50;97.10
5520;DHT22;2782;52.362;10.012;2022-11-09T00:07:01;19.50;97.20
5520;DHT22;2782;52.362;10.012;2022-11-09T00:08:05;19.50;97.20
5520;DHT22;2782;52.362;10.012;2022-11-09T00:09:07;19.50;97.20
5520;DHT22;2782;52.362;10.012;2022-11-09T00:10:09;19.50;97.20
5520;DHT22;2782;52.362;10.012;2022-11-09T00:11:11;19.50;97.30
5520;DHT22;2782;52.362;10.012;2022-11-09T00:12:11;19.50;97.30
5520;DHT22;2782;52.362;10.012;2022-11-09T00:13:13;19.50;97.30
5520;DHT22;2782;52.362;10.012;2022-11-09T00:14:14;19.50;97.40
5520;DHT22;2782;52.362;10.012;2022-11-09T00:15:16;19.50;97.30
5520;DHT22;2782;52.362;10.012;2022-11-09T00:16:19;19.50;97.30
5520;DHT22;2782;52.362;10.012;2022-11-09T00:17:21;19.50;97.40
5520;DHT22;2782;52.362;10.012;2022-11-09T00:18:22;19.50;97.40
5520;DHT22;2782;52.362;10.012;2022-11-09T00:19:24;19.50;97.40
5520;DHT22;2782;52.362;10.012;2022-11-09T00:20:25;19.50;97.50
5520;DHT22;2782;52.362;10.012;2022-11-09T00:21:27;19.50;97.50
5520;DHT22;2782;52.362;10.012;2022-11-09T00:22:27;19.50;97.50
5520;DHT22;2782;52.362;10.012;2022-11-09T00:23:30;19.50;97.40
5520;DHT22;2782;52.362;10.012;2022-11-09T00:24:31;19.50;97.50
5520;DHT22;2782;52.362;10.012;2022-11-09T00:25:33;19.50;97.50
5520;DHT22;2782;52.362;10.012;2022-11-09T00:26:34;19.50;97.50
5520;DHT22;2782;52.362;10.012;2022-11-09T00:27:35;19.50;97.50
5520;DHT22;2782;52.362;10.012;2022-11-09T00:28:36;19.50;97.50
5520;DHT22;2782;52.362;10.012;2022-11-09T00:29:38;19.50;97.50
5520;DHT22;2782;52.362;10.012;2022-11-09T00:30:39;19.50;97.60
5520;DHT22;2782;52.362;10.012;2022-11-09T00:31:41;19.50;97.60
5520;DHT22;2782;52.362;10.012;2022-11-09T00:32:42;19.50;97.60
5520;DHT22;2782;52.362;10.012;2022-11-09T00:33:47;19.50;97.60
5520;DHT22;2782;52.362;10.012;2022-11-09T00:34:47;19.50;97.70
5520;DHT22;2782;52.362;10.012;2022-11-09T00:35:49;19.50;97.70
5520;DHT22;2782;52.362;10.012;2022-11-09T00:36:50;19.50;97.70
5520;DHT22;2782;52.362;10.012;2022-11-09T00:37:51;19.50;97.70
5520;DHT22;2782;52.362;10.012;2022-11-09T00:38:55;19.50;97.80
5520;DHT22;2782;52.362;10.012;2022-11-09T00:39:57;19.50;97.80
5520;DHT22;2782;52.362;10.012;2022-11-09T00:40:59;19.50;97.80
5520;DHT22;2782;52.362;10.012;2022-11-09T00:42:01;19.50;97.80
5520;DHT22;2782;52.362;10.012;2022-11-09T00:43:01;19.50;97.80
5520;DHT22;2782;52.362;10.012;2022-11-09T00:44:03;19.50;97.90
5520;DHT22;2782;52.362;10.012;2022-11-09T00:45:05;19.50;97.90
5520;DHT22;2782;52.362;10.012;2022-11-09T00:46:10;19.50;97.90
5520;DHT22;2782;52.362;10.012;2022-11-09T00:47:10;19.50;97.90
5520;DHT22;2782;52.362;10.012;2022-11-09T00:48:12;19.50;97.90
5520;DHT22;2782;52.362;10.012;2022-11-09T00:49:13;19.50;97.90
5520;DHT22;2782;52.362;10.012;2022-11-09T00:50:15;19.50;97.90
5520;DHT22;2782;52.362;10.012;2022-11-09T00:51:16;19.50;97.90
5520;DHT22;2782;52.362;10.012;2022-11-09T00:52:18;19.50;97.90
5520;DHT22;2782;52.362;10.012;2022-11-09T00:53:19;19.50;97.90
5520;DHT22;2782;52.362;10.012;2022-11-09T00:54:23;19.50;98.00
5520;DHT22;2782;52.362;10.012;2022-11-09T00:55:24;19.50;98.00
5520;DHT22;2782;52.362;10.012;2022-11-09T00:56:25;19.50;98.00
5520;DHT22;2782;52.362;10.012;2022-11-09T00:57:27;19.50;98.10
5520;DHT22;2782;52.362;10.012;2022-11-09T00:58:30;19.50;98.10
5520;DHT22;2782;52.362;10.012;2022-11-09T00:59:32;19.50;98.10
5520;DHT22;2782;52.362;10.012;2022-11-09T01:00:32;19.50;98.10
5520;DHT22;2782;52.362;10.012;2022-11-09T01:01:34;19.50;98.10
5520;DHT22;2782;52.362;10.012;2022-11-09T01:02:35;19.50;98.10
5520;DHT22;2782;52.362;10.012;2022-11-09T01:03:38;19.50;98.20
5520;DHT22;2782;52.362;10.012;2022-11-09T01:04:39;19.50;98.20
5520;DHT22;2782;52.362;10.012;2022-11-09T01:05:40;19.50;98.20
5520;DHT22;2782;52.362;10.012;2022-11-09T01:06:41;19.50;98.20
5520;DHT22;2782;52.362;10.012;2022-11-09T01:07:43;19.50;98.20
5520;DHT22;2782;52.362;10.012;2022-11-09T01:08:44;19.50;98.30
5520;DHT22;2782;52.362;10.012;2022-11-09T01:09:48;19.50;98.30
5520;DHT22;2782;52.362;10.012;2022-11-09T01:10:48;19.50;98.30
5520;DHT22;2782;52.362;10.012;2022-11-09T01:11:50;19.50;98.20
5520;DHT22;2782;52.362;10.012;2022-11-09T01:12:52;19.50;98.30
5520;DHT22;2782;52.362;10.012;2022-11-09T01:13:53;19.50;98.20
5520;DHT22;2782;52.362;10.012;2022-11-09T01:14:55;19.50;98.20
5520;DHT22;2782;52.362;10.012;2022-11-09T01:15:55;19.50;98.20
5520;DHT22;2782;52.362;10.012;2022-11-09T01:16:57;19.50;98.20
5520;DHT22;2782;52.362;10.012;2022-11-09T01:17:58;19.50;98.20
5520;DHT22;2782;52.362;10.012;2022-11-09T01:18:59;19.50;98.20
5520;DHT22;2782;52.362;10.012;2022-11-09T01:20:04;19.50;98.10
5520;DHT22;2782;52.362;10.012;2022-11-09T01:21:06;19.50;98.10
5520;DHT22;2782;52.362;10.012;2022-11-09T01:22:08;19.50;98.10
5520;DHT22;2782;52.362;10.012;2022-11-09T01:23:09;19.50;98.10
5520;DHT22;2782;52.362;10.012;2022-11-09T01:24:11;19.50;98.10
5520;DHT22;2782;52.362;10.012;2022-11-09T01:25:13;19.50;98.00
5520;DHT22;2782;52.362;10.012;2022-11-09T01:26:15;19.50;98.00
5520;DHT22;2782;52.362;10.012;2022-11-09T01:27:16;19.50;98.00
5520;DHT22;2782;52.362;10.012;2022-11-09T01:28:18;19.40;97.90
5520;DHT22;2782;52.362;10.012;2022-11-09T01:29:18;19.50;97.90
5520;DHT22;2782;52.362;10.012;2022-11-09T01:30:20;19.50;97.90
5520;DHT22;2782;52.362;10.012;2022-11-09T01:31:22;19.50;97.90
5520;DHT22;2782;52.362;10.012;2022-11-09T01:32:23;19.40;97.90
5520;DHT22;2782;52.362;10.012;2022-11-09T01:33:24;19.40;97.90
5520;DHT22;2782;52.362;10.012;2022-11-09T01:34:27;19.50;97.90
5520;DHT22;2782;52.362;10.012;2022-11-09T01:35:28;19.50;97.90
5520;DHT22;2782;52.362;10.012;2022-11-09T01:36:30;19.40;97.80
5520;DHT22;2782;52.362;10.012;2022-11-09T01:37:31;19.40;97.80
5520;DHT22;2782;52.362;10.012;2022-11-09T01:38:32;19.50;97.80
5520;DHT22;2782;52.362;10.012;2022-11-09T01:39:35;19.40;97.80
5520;DHT22;2782;52.362;10.012;2022-11-09T01:40:39;19.40;97.80
5520;DHT22;2782;52.362;10.012;2022-11-09T01:41:39;19.40;97.70
5520;DHT22;2782;52.362;10.012;2022-11-09T01:42:42;19.40;97.70
5520;DHT22;2782;52.362;10.012;2022-11-09T01:43:43;19.40;97.70
5520;DHT22;2782;52.362;10.012;2022-11-09T01:44:46;19.40;97.70
5520;DHT22;2782;52.362;10.012;2022-11-09T01:45:49;19.40;97.70
5520;DHT22;2782;52.362;10.012;2022-11-09T01:46:54;19.40;97.70
5520;DHT22;2782;52.362;10.012;2022-11-09T01:47:59;19.40;97.70
5520;DHT22;2782;52.362;10.012;2022-11-09T01:49:04;19.40;97.60
5520;DHT22;2782;52.362;10.012;2022-11-09T01:50:09;19.40;97.70
5520;DHT22;2782;52.362;10.012;2022-11-09T01:51:14;19.40;97.60
5520;DHT22;2782;52.362;10.012;2022-11-09T01:52:19;19.40;97.60
5520;DHT22;2782;52.362;10.012;2022-11-09T01:53:25;19.40;97.60
5520;DHT22;2782;52.362;10.012;2022-11-09T01:54:30;19.40;97.70
5520;DHT22;2782;52.362;10.012;2022-11-09T01:55:33;19.40;97.60
5520;DHT22;2782;52.362;10.012;2022-11-09T01:56:37;19.40;97.60
5520;DHT22;2782;52.362;10.012;2022-11-09T01:57:41;19.40;97.60
5520;DHT22;2782;52.362;10.012;2022-11-09T01:58:48;19.40;97.60
5520;DHT22;2782;52.362;10.012;2022-11-09T01:59:52;19.40;97.60
5520;DHT22;2782;52.362;10.012;2022-11-09T02:00:56;19.40;97.60
5520;DHT22;2782;52.362;10.012;2022-11-09T02:01:59;19.40;97.60
5520;DHT22;2782;52.362;10.012;2022-11-09T02:03:04;19.40;97.60
5520;DHT22;2782;52.362;10.012;2022-11-09T02:04:08;19.40;97.60
5520;DHT22;2782;52.362;10.012;2022-11-09T02:05:13;19.40;97.60
5520;DHT22;2782;52.362;10.012;2022-11-09T02:06:15;19.40;97.60
5520;DHT22;2782;52.362;10.012;2022-11-09T02:07:18;19.40;97.60
5520;DHT22;2782;52.362;10.012;2022-11-09T02:08:22;19.40;97.60
5520;DHT22;2782;52.362;10.012;2022-11-09T02:09:42;19.40;97.60
5520;DHT22;2782;52.362;10.012;2022-11-09T02:10:49;19.40;97.60
5520;DHT22;2782;52.362;10.012;2022-11-09T02:11:53;19.40;97.60
5520;DHT22;2782;52.362;10.012;2022-11-09T02:12:54;19.40;97.60
5520;DHT22;2782;52.362;10.012;2022-11-09T02:13:58;19.40;97.60
5520;DHT22;2782;52.362;10.012;2022-11-09T02:15:02;19.40;97.60
5520;DHT22;2782;52.362;10.012;2022-11-09T02:16:05;19.40;97.60
5520;DHT22;2782;52.362;10.012;2022-11-09T02:17:07;19.40;97.60
5520;DHT22;2782;52.362;10.012;2022-11-09T02:18:09;19.40;97.50
5520;DHT22;2782;52.362;10.012;2022-11-09T02:19:10;19.40;97.50
5520;DHT22;2782;52.362;10.012;2022-11-09T02:20:15;19.40;97.50
5520;DHT22;2782;52.362;10.012;2022-11-09T02:21:16;19.40;97.50
5520;DHT22;2782;52.362;10.012;2022-11-09T02:22:17;19.40;97.50
5520;DHT22;2782;52.362;10.012;2022-11-09T02:23:18;19.40;97.40
5520;DHT22;2782;52.362;10.012;2022-11-09T02:24:20;19.40;97.40
5520;DHT22;2782;52.362;10.012;2022-11-09T02:25:21;19.40;97.40
5520;DHT22;2782;52.362;10.012;2022-11-09T02:26:26;19.40;97.40
5520;DHT22;2782;52.362;10.012;2022-11-09T02:27:27;19.40;97.40
5520;DHT22;2782;52.362;10.012;2022-11-09T02:28:30;19.40;97.30
5520;DHT22;2782;52.362;10.012;2022-11-09T02:29:33;19.40;97.30
5520;DHT22;2782;52.362;10.012;2022-11-09T02:30:36;19.40;97.30
5520;DHT22;2782;52.362;10.012;2022-11-09T02:31:40;19.40;97.30
5520;DHT22;2782;52.362;10.012;2022-11-09T02:32:43;19.40;97.30
5520;DHT22;2782;52.362;10.012;2022-11-09T02:33:52;19.40;97.30
5520;DHT22;2782;52.362;10.012;2022-11-09T02:34:55;19.40;97.30
5520;DHT22;2782;52.362;10.012;2022-11-09T02:35:57;19.40;97.30
5520;DHT22;2782;52.362;10.012;2022-11-09T02:37:01;19.40;97.30
5520;DHT22;2782;52.362;10.012;2022-11-09T02:38:01;19.40;97.30
5520;DHT22;2782;52.362;10.012;2022-11-09T02:39:03;19.30;97.20
5520;DHT22;2782;52.362;10.012;2022-11-09T02:40:09;19.40;97.30
5520;DHT22;2782;52.362;10.012;2022-11-09T02:41:13;19.40;97.30
5520;DHT22;2782;52.362;10.012;2022-11-09T02:42:16;19.40;97.30
5520;DHT22;2782;52.362;10.012;2022-11-09T02:43:18;19.40;97.20
5520;DHT22;2782;52.362;10.012;2022-11-09T02:44:19;19.30;97.10
5520;DHT22;2782;52.362;10.012;2022-11-09T02:45:21;19.30;97.10
5520;DHT22;2782;52.362;10.012;2022-11-09T02:46:23;19.30;97.10
5520;DHT22;2782;52.362;10.012;2022-11-09T02:47:26;19.30;97.10
5520;DHT22;2782;52.362;10.012;2022-11-09T02:48:27;19.40;97.20
5520;DHT22;2782;52.362;10.012;2022-11-09T02:49:28;19.40;97.10
5520;DHT22;2782;52.362;10.012;2022-11-09T02:50:29;19.30;97.10
5520;DHT22;2782;52.362;10.012;2022-11-09T02:51:32;19.30;97.10
5520;DHT22;2782;52.362;10.012;2022-11-09T02:52:33;19.40;97.10
5520;DHT22;2782;52.362;10.012;2022-11-09T02:53:34;19.30;97.00
5520;DHT22;2782;52.362;10.012;2022-11-09T02:54:35;19.40;97.10
5520;DHT22;2782;52.362;10.012;2022-11-09T02:55:37;19.40;97.10
5520;DHT22;2782;52.362;10.012;2022-11-09T02:56:39;19.30;97.00
5520;DHT22;2782;52.362;10.012;2022-11-09T02:57:41;19.30;97.00
5520;DHT22;2782;52.362;10.012;2022-11-09T02:58:41;19.30;97.00
5520;DHT22;2782;52.362;10.012;2022-11-09T02:59:43;19.30;96.90
5520;DHT22;2782;52.362;10.012;2022-11-09T03:00:44;19.30;97.00
5520;DHT22;2782;52.362;10.012;2022-11-09T03:04:53;19.30;97.00
5520;DHT22;2782;52.362;10.012;2022-11-09T03:05:55;19.30;97.00
5520;DHT22;2782;52.362;10.012;2022-11-09T03:06:57;19.30;97.00
5520;DHT22;2782;52.362;10.012;2022-11-09T03:07:59;19.30;97.10
5520;DHT22;2782;52.362;10.012;2022-11-09T03:09:05;19.30;97.10
5520;DHT22;2782;52.362;10.012;2022-11-09T03:10:12;19.30;97.10
5520;DHT22;2782;52.362;10.012;2022-11-09T03:11:15;19.30;97.00
5520;DHT22;2782;52.362;10.012;2022-11-09T03:12:19;19.30;97.00
5520;DHT22;2782;52.362;10.012;2022-11-09T03:13:29;19.30;97.00
5520;DHT22;2782;52.362;10.012;2022-11-09T03:14:31;19.30;97.00
5520;DHT22;2782;52.362;10.012;2022-11-09T03:15:33;19.30;97.00
5520;DHT22;2782;52.362;10.012;2022-11-09T03:16:38;19.30;97.00
5520;DHT22;2782;52.362;10.012;2022-11-09T03:17:42;19.30;97.10
5520;DHT22;2782;52.362;10.012;2022-11-09T03:18:45;19.30;97.00
5520;DHT22;2782;52.362;10.012;2022-11-09T03:19:48;19.30;97.00
5520;DHT22;2782;52.362;10.012;2022-11-09T03:20:51;19.30;97.10
5520;DHT22;2782;52.362;10.012;2022-11-09T03:21:55;19.30;97.10
5520;DHT22;2782;52.362;10.012;2022-11-09T03:23:00;19.30;97.00
5520;DHT22;2782;52.362;10.012;2022-11-09T03:24:05;19.30;97.10
5520;DHT22;2782;52.362;10.012;2022-11-09T03:25:09;19.30;97.10
5520;DHT22;2782;52.362;10.012;2022-11-09T03:26:14;19.30;97.10
5520;DHT22;2782;52.362;10.012;2022-11-09T03:27:17;19.30;97.10
5520;DHT22;2782;52.362;10.012;2022-11-09T03:28:19;19.30;97.00
5520;DHT22;2782;52.362;10.012;2022-11-09T03:29:22;19.30;97.00
5520;DHT22;2782;52.362;10.012;2022-11-09T03:30:25;19.30;97.00
5520;DHT22;2782;52.362;10.012;2022-11-09T03:31:28;19.30;97.00
5520;DHT22;2782;52.362;10.012;2022-11-09T03:32:29;19.30;97.00
5520;DHT22;2782;52.362;10.012;2022-11-09T03:33:33;19.30;97.00
5520;DHT22;2782;52.362;10.012;2022-11-09T03:34:35;19.30;97.00
5520;DHT22;2782;52.362;10.012;2022-11-09T03:35:40;19.30;97.00
5520;DHT22;2782;52.362;10.012;2022-11-09T03:36:44;19.20;96.90
5520;DHT22;2782;52.362;10.012;2022-11-09T03:37:48;19.30;97.00
5520;DHT22;2782;52.362;10.012;2022-11-09T03:38:54;19.20;96.90
5520;DHT22;2782;52.362;10.012;2022-11-09T03:39:59;19.30;96.90
5520;DHT22;2782;52.362;10.012;2022-11-09T03:41:01;19.30;96.90
5520;DHT22;2782;52.362;10.012;2022-11-09T03:42:05;19.30;96.90
5520;DHT22;2782;52.362;10.012;2022-11-09T03:43:07;19.30;96.90
5520;DHT22;2782;52.362;10.012;2022-11-09T03:44:11;19.30;97.00
5520;DHT22;2782;52.362;10.012;2022-11-09T03:45:12;19.30;96.90
5520;DHT22;2782;52.362;10.012;2022-11-09T03:46:14;19.30;96.90
5520;DHT22;2782;52.362;10.012;2022-11-09T03:47:15;19.30;96.90
5520;DHT22;2782;52.362;10.012;2022-11-09T03:48:17;19.30;96.90
5520;DHT22;2782;52.362;10.012;2022-11-09T03:49:18;19.30;96.90
5520;DHT22;2782;52.362;10.012;2022-11-09T03:50:19;19.30;97.10
5520;DHT22;2782;52.362;10.012;2022-11-09T03:51:20;19.30;96.90
5520;DHT22;2782;52.362;10.012;2022-11-09T03:52:22;19.30;96.80
5520;DHT22;2782;52.362;10.012;2022-11-09T03:53:22;19.30;96.80
5520;DHT22;2782;52.362;10.012;2022-11-09T03:54:25;19.30;96.80
5520;DHT22;2782;52.362;10.012;2022-11-09T03:55:27;19.30;96.80
5520;DHT22;2782;52.362;10.012;2022-11-09T03:56:28;19.30;96.80
5520;DHT22;2782;52.362;10.012;2022-11-09T03:57:29;19.30;96.80
5520;DHT22;2782;52.362;10.012;2022-11-09T03:58:31;19.20;96.70
5520;DHT22;2782;52.362;10.012;2022-11-09T03:59:32;19.30;96.70
5520;DHT22;2782;52.362;10.012;2022-11-09T04:00:33;19.30;96.70
5520;DHT22;2782;52.362;10.012;2022-11-09T04:01:35;19.30;96.70
5520;DHT22;2782;52.362;10.012;2022-11-09T04:02:36;19.30;96.70
5520;DHT22;2782;52.362;10.012;2022-11-09T04:03:38;19.30;96.70
5520;DHT22;2782;52.362;10.012;2022-11-09T04:04:38;19.30;96.70
5520;DHT22;2782;52.362;10.012;2022-11-09T04:05:40;19.30;96.70
5520;DHT22;2782;52.362;10.012;2022-11-09T04:06:41;19.30;96.70
5520;DHT22;2782;52.362;10.012;2022-11-09T04:07:46;19.30;96.70
5520;DHT22;2782;52.362;10.012;2022-11-09T04:08:47;19.30;96.70
5520;DHT22;2782;52.362;10.012;2022-11-09T04:09:50;19.30;96.70
5520;DHT22;2782;52.362;10.012;2022-11-09T04:10:51;19.30;96.70
5520;DHT22;2782;52.362;10.012;2022-11-09T04:11:53;19.30;96.70
5520;DHT22;2782;52.362;10.012;2022-11-09T04:12:53;19.30;96.70
5520;DHT22;2782;52.362;10.012;2022-11-09T04:13:55;19.20;96.60
5520;DHT22;2782;52.362;10.012;2022-11-09T04:14:56;19.30;96.70
5520;DHT22;2782;52.362;10.012;2022-11-09T04:15:58;19.30;96.60
5520;DHT22;2782;52.362;10.012;2022-11-09T04:16:58;19.30;96.60
5520;DHT22;2782;52.362;10.012;2022-11-09T04:18:01;19.30;96.60
5520;DHT22;2782;52.362;10.012;2022-11-09T04:19:01;19.30;96.60
5520;DHT22;2782;52.362;10.012;2022-11-09T04:20:03;19.30;96.50
5520;DHT22;2782;52.362;10.012;2022-11-09T04:21:04;19.20;96.50
5520;DHT22;2782;52.362;10.012;2022-11-09T04:22:06;19.30;96.50
5520;DHT22;2782;52.362;10.012;2022-11-09T04:23:09;19.30;96.50
5520;DHT22;2782;52.362;10.012;2022-11-09T04:24:11;19.30;96.60
5520;DHT22;2782;52.362;10.012;2022-11-09T04:25:14;19.30;96.50
5520;DHT22;2782;52.362;10.012;2022-11-09T04:26:15;19.20;96.50
5520;DHT22;2782;52.362;10.012;2022-11-09T04:27:16;19.20;96.50
5520;DHT22;2782;52.362;10.012;2022-11-09T04:28:18;19.30;96.50
5520;DHT22;2782;52.362;10.012;2022-11-09T04:29:19;19.30;96.50
5520;DHT22;2782;52.362;10.012;2022-11-09T04:30:21;19.30;96.60
5520;DHT22;2782;52.362;10.012;2022-11-09T04:31:22;19.30;96.60
5520;DHT22;2782;52.362;10.012;2022-11-09T04:32:23;19.20;96.50
5520;DHT22;2782;52.362;10.012;2022-11-09T04:33:24;19.20;96.50
5520;DHT22;2782;52.362;10.012;2022-11-09T04:34:26;19.20;96.50
5520;DHT22;2782;52.362;10.012;2022-11-09T04:35:27;19.30;96.50
5520;DHT22;2782;52.362;10.012;2022-11-09T04:36:29;19.20;96.40
5520;DHT22;2782;52.362;10.012;2022-11-09T04:37:30;19.30;96.50
5520;DHT22;2782;52.362;10.012;2022-11-09T04:38:32;19.20;96.50
5520;DHT22;2782;52.362;10.012;2022-11-09T04:39:32;19.20;96.40
5520;DHT22;2782;52.362;10.012;2022-11-09T04:40:35;19.20;96.40
5520;DHT22;2782;52.362;10.012;2022-11-09T04:41:36;19.20;96.50
5520;DHT22;2782;52.362;10.012;2022-11-09T04:42:38;19.20;96.40
5520;DHT22;2782;52.362;10.012;2022-11-09T04:43:39;19.20;96.40
5520;DHT22;2782;52.362;10.012;2022-11-09T04:44:41;19.20;96.40
5520;DHT22;2782;52.362;10.012;2022-11-09T04:45:42;19.20;96.40
5520;DHT22;2782;52.362;10.012;2022-11-09T04:46:43;19.20;96.30
5520;DHT22;2782;52.362;10.012;2022-11-09T04:47:45;19.20;96.50
5520;DHT22;2782;52.362;10.012;2022-11-09T04:48:46;19.20;96.40
5520;DHT22;2782;52.362;10.012;2022-11-09T04:49:47;19.20;96.60
5520;DHT22;2782;52.362;10.012;2022-11-09T04:50:48;19.20;96.40
5520;DHT22;2782;52.362;10.012;2022-11-09T04:51:50;19.20;96.40
5520;DHT22;2782;52.362;10.012;2022-11-09T04:52:51;19.20;96.30
5520;DHT22;2782;52.362;10.012;2022-11-09T04:53:52;19.20;96.40
5520;DHT22;2782;52.362;10.012;2022-11-09T04:54:53;19.20;96.30
5520;DHT22;2782;52.362;10.012;2022-11-09T04:55:56;19.20;96.60
5520;DHT22;2782;52.362;10.012;2022-11-09T04:56:57;19.20;96.30
5520;DHT22;2782;52.362;10.012;2022-11-09T04:57:59;19.20;96.30
5520;DHT22;2782;52.362;10.012;2022-11-09T04:58:59;19.20;96.30
5520;DHT22;2782;52.362;10.012;2022-11-09T05:00:01;19.20;96.30
5520;DHT22;2782;52.362;10.012;2022-11-09T05:01:02;19.20;96.30
5520;DHT22;2782;52.362;10.012;2022-11-09T05:02:04;19.20;96.30
5520;DHT22;2782;52.362;10.012;2022-11-09T05:03:06;19.20;96.20
5520;DHT22;2782;52.362;10.012;2022-11-09T05:04:07;19.20;96.20
5520;DHT22;2782;52.362;10.012;2022-11-09T05:05:08;19.20;96.20
5520;DHT22;2782;52.362;10.012;2022-11-09T05:06:10;19.20;96.20
5520;DHT22;2782;52.362;10.012;2022-11-09T05:07:29;19.20;96.20
5520;DHT22;2782;52.362;10.012;2022-11-09T05:08:31;19.20;96.20
5520;DHT22;2782;52.362;10.012;2022-11-09T05:09:32;19.20;96.20
5520;DHT22;2782;52.362;10.012;2022-11-09T05:10:34;19.20;96.20
5520;DHT22;2782;52.362;10.012;2022-11-09T05:11:36;19.20;96.20
5520;DHT22;2782;52.362;10.012;2022-11-09T05:12:38;19.20;96.20
5520;DHT22;2782;52.362;10.012;2022-11-09T05:13:39;19.20;96.20
5520;DHT22;2782;52.362;10.012;2022-11-09T05:14:41;19.20;96.20
5520;DHT22;2782;52.362;10.012;2022-11-09T05:15:42;19.20;96.20
5520;DHT22;2782;52.362;10.012;2022-11-09T05:16:44;19.20;96.20
5520;DHT22;2782;52.362;10.012;2022-11-09T05:17:45;19.20;96.10
5520;DHT22;2782;52.362;10.012;2022-11-09T05:18:47;19.20;96.10
5520;DHT22;2782;52.362;10.012;2022-11-09T05:19:48;19.20;96.10
5520;DHT22;2782;52.362;10.012;2022-11-09T05:20:49;19.20;96.10
5520;DHT22;2782;52.362;10.012;2022-11-09T05:21:50;19.20;96.00
5520;DHT22;2782;52.362;10.012;2022-11-09T05:22:52;19.20;96.00
5520;DHT22;2782;52.362;10.012;2022-11-09T05:24:12;19.20;96.00
5520;DHT22;2782;52.362;10.012;2022-11-09T05:25:14;19.20;96.00
5520;DHT22;2782;52.362;10.012;2022-11-09T05:26:15;19.20;96.00
5520;DHT22;2782;52.362;10.012;2022-11-09T05:27:18;19.20;96.00
5520;DHT22;2782;52.362;10.012;2022-11-09T05:28:19;19.10;96.00
5520;DHT22;2782;52.362;10.012;2022-11-09T05:29:21;19.20;96.10
5520;DHT22;2782;52.362;10.012;2022-11-09T05:30:22;19.20;96.10
5520;DHT22;2782;52.362;10.012;2022-11-09T05:31:24;19.20;96.20
5520;DHT22;2782;52.362;10.012;2022-11-09T05:32:25;19.20;96.10
5520;DHT22;2782;52.362;10.012;2022-11-09T05:33:27;19.10;96.10
5520;DHT22;2782;52.362;10.012;2022-11-09T05:34:28;19.10;96.00
5520;DHT22;2782;52.362;10.012;2022-11-09T05:35:29;19.10;96.00
5520;DHT22;2782;52.362;10.012;2022-11-09T05:36:30;19.10;96.00
5520;DHT22;2782;52.362;10.012;2022-11-09T05:37:33;19.20;96.10
5520;DHT22;2782;52.362;10.012;2022-11-09T05:38:33;19.20;96.10
5520;DHT22;2782;52.362;10.012;2022-11-09T05:39:39;19.20;96.10
5520;DHT22;2782;52.362;10.012;2022-11-09T05:40:41;19.10;96.00
5520;DHT22;2782;52.362;10.012;2022-11-09T05:41:43;19.20;96.10
5520;DHT22;2782;52.362;10.012;2022-11-09T05:42:46;19.10;96.10
5520;DHT22;2782;52.362;10.012;2022-11-09T05:43:48;19.20;96.10
5520;DHT22;2782;52.362;10.012;2022-11-09T05:44:49;19.20;96.60
5520;DHT22;2782;52.362;10.012;2022-11-09T05:45:51;19.10;96.40
5520;DHT22;2782;52.362;10.012;2022-11-09T05:46:52;19.20;96.30
5520;DHT22;2782;52.362;10.012;2022-11-09T05:47:54;19.20;96.30
5520;DHT22;2782;52.362;10.012;2022-11-09T05:48:54;19.20;96.40
5520;DHT22;2782;52.362;10.012;2022-11-09T05:49:56;19.20;96.70
5520;DHT22;2782;52.362;10.012;2022-11-09T05:50:59;19.20;96.80
5520;DHT22;2782;52.362;10.012;2022-11-09T05:52:01;19.20;97.00
5520;DHT22;2782;52.362;10.012;2022-11-09T05:53:02;19.20;97.20
5520;DHT22;2782;52.362;10.012;2022-11-09T05:54:04;19.20;97.70
5520;DHT22;2782;52.362;10.012;2022-11-09T05:55:05;19.20;98.00
5520;DHT22;2782;52.362;10.012;2022-11-09T05:56:09;19.20;98.20
5520;DHT22;2782;52.362;10.012;2022-11-09T05:57:10;19.20;98.60
5520;DHT22;2782;52.362;10.012;2022-11-09T05:58:13;19.20;98.80
5520;DHT22;2782;52.362;10.012;2022-11-09T05:59:14;19.20;99.10
5520;DHT22;2782;52.362;10.012;2022-11-09T06:00:16;19.30;99.40
5520;DHT22;2782;52.362;10.012;2022-11-09T06:01:17;19.30;99.90
5520;DHT22;2782;52.362;10.012;2022-11-09T06:02:19;19.30;99.90
5520;DHT22;2782;52.362;10.012;2022-11-09T06:03:20;19.30;99.90
5520;DHT22;2782;52.362;10.012;2022-11-09T06:04:22;19.30;99.90
5520;DHT22;2782;52.362;10.012;2022-11-09T06:05:23;19.30;99.90
5520;DHT22;2782;52.362;10.012;2022-11-09T06:06:24;19.30;99.90
5520;DHT22;2782;52.362;10.012;2022-11-09T06:07:26;19.30;99.90
5520;DHT22;2782;52.362;10.012;2022-11-09T06:08:27;19.30;99.90
5520;DHT22;2782;52.362;10.012;2022-11-09T06:09:29;19.30;99.90
5520;DHT22;2782;52.362;10.012;2022-11-09T06:10:29;19.30;99.90
5520;DHT22;2782;52.362;10.012;2022-11-09T06:11:31;19.30;99.90
5520;DHT22;2782;52.362;10.012;2022-11-09T06:12:32;19.30;99.90
5520;DHT22;2782;52.362;10.012;2022-11-09T06:13:35;19.30;99.90
5520;DHT22;2782;52.362;10.012;2022-11-09T06:14:36;19.30;99.90
5520;DHT22;2782;52.362;10.012;2022-11-09T06:15:38;19.40;99.90
5520;DHT22;2782;52.362;10.012;2022-11-09T06:16:38;19.30;99.90
5520;DHT22;2782;52.362;10.012;2022-11-09T06:17:40;19.40;99.90
5520;DHT22;2782;52.362;10.012;2022-11-09T06:18:41;19.40;99.90
5520;DHT22;2782;52.362;10.012;2022-11-09T06:19:42;19.40;99.90
5520;DHT22;2782;52.362;10.012;2022-11-09T06:20:43;19.40;99.90
5520;DHT22;2782;52.362;10.012;2022-11-09T06:21:45;19.40;99.90
5520;DHT22;2782;52.362;10.012;2022-11-09T06:22:52;19.40;99.90
5520;DHT22;2782;52.362;10.012;2022-11-09T06:23:53;19.40;99.90
5520;DHT22;2782;52.362;10.012;2022-11-09T06:24:55;19.50;99.90
5520;DHT22;2782;52.362;10.012;2022-11-09T06:25:56;19.50;99.90
5520;DHT22;2782;52.362;10.012;2022-11-09T06:26:58;19.50;99.90
5520;DHT22;2782;52.362;10.012;2022-11-09T06:27:59;19.50;99.90
5520;DHT22;2782;52.362;10.012;2022-11-09T06:29:03;19.50;99.90
5520;DHT22;2782;52.362;10.012;2022-11-09T06:30:05;19.50;99.90
5520;DHT22;2782;52.362;10.012;2022-11-09T06:31:10;19.50;99.90
5520;DHT22;2782;52.362;10.012;2022-11-09T06:32:11;19.50;99.90
5520;DHT22;2782;52.362;10.012;2022-11-09T06:33:12;19.60;99.90
5520;DHT22;2782;52.362;10.012;2022-11-09T06:34:13;19.60;99.90
5520;DHT22;2782;52.362;10.012;2022-11-09T06:35:15;19.60;99.90
5520;DHT22;2782;52.362;10.012;2022-11-09T06:36:16;19.60;99.90
5520;DHT22;2782;52.362;10.012;2022-11-09T06:37:18;19.60;99.90
5520;DHT22;2782;52.362;10.012;2022-11-09T06:38:19;19.70;99.90
5520;DHT22;2782;52.362;10.012;2022-11-09T06:39:21;19.70;99.90
5520;DHT22;2782;52.362;10.012;2022-11-09T06:40:22;19.70;99.90
5520;DHT22;2782;52.362;10.012;2022-11-09T06:41:23;19.70;99.90
5520;DHT22;2782;52.362;10.012;2022-11-09T06:42:25;19.70;99.90